Time;durP1;ratioP1;P1;durP2;ratioP2;P2;SDS_P1;SDS_P2;PMS_P1;PMS_P2;Temp;Humidity;BMP_temperature;BMP_pressure;BME280_temperature;BME280_humidity;BME280_pressure;Samples;Min_cycle;Max_cycle;Signal;HPM_P1;HPM_P2
2022/11/09 00:01:15;;;;;;;;;5.50;2.25;;;;;16.23;68.55;100391.66;4867609;29;45272;-75
2022/11/09 00:03:40;;;;;;;;;3.25;3.25;;;;;16.18;68.50;100377.59;4868220;29;46600;-75
2022/11/09 00:06:06;;;;;;;;;3.25;3.00;;;;;16.21;68.53;100383.66;4867341;29;45341;-75
2022/11/09 00:08:31;;;;;;;;;2.00;2.00;;;;;16.23;68.43;100388.97;4867935;29;45677;-75
2022/11/09 00:11:08;;;;;;;;;5.00;3.75;;;;;16.20;68.66;100386.47;4867938;29;45516;-74
2022/11/09 00:13:38;;;;;;;;;4.25;3.00;;;;;16.17;68.64;100386.63;4859175;29;47363;-75
2022/11/09 00:16:09;;;;;;;;;5.75;5.75;;;;;16.18;68.70;100399.16;4867759;29;47398;-75
2022/11/09 00:18:36;;;;;;;;;4.25;4.00;;;;;16.17;68.82;100401.00;4875322;29;45489;-75
2022/11/09 00:21:10;;;;;;;;;4.00;2.25;;;;;16.18;68.71;100412.63;4868650;29;45532;-75
2022/11/09 00:23:35;;;;;;;;;4.50;4.50;;;;;16.15;68.95;100413.66;4868120;29;45367;-75
2022/11/09 00:26:03;;;;;;;;;4.00;4.00;;;;;16.08;69.52;100407.78;4867616;29;45447;-75
2022/11/09 00:28:28;;;;;;;;;5.25;4.00;;;;;16.10;69.84;100405.88;4858549;29;45322;-75
2022/11/09 00:31:05;;;;;;;;;3.75;3.75;;;;;16.07;70.03;100405.19;4862227;29;45561;-74
2022/11/09 00:33:31;;;;;;;;;3.75;3.75;;;;;16.05;70.11;100375.66;4867921;29;46083;-74
2022/11/09 00:35:56;;;;;;;;;4.75;3.00;;;;;16.04;70.40;100360.47;4866547;29;45378;-75
2022/11/09 00:38:22;;;;;;;;;4.50;3.75;;;;;16.04;70.35;100362.31;4863917;29;45742;-74
2022/11/09 00:40:47;;;;;;;;;3.75;2.00;;;;;16.02;70.74;100361.50;4875816;29;45272;-75
2022/11/09 00:43:13;;;;;;;;;5.25;2.50;;;;;15.95;70.58;100355.63;4867686;29;46227;-74
2022/11/09 00:45:41;;;;;;;;;2.50;2.50;;;;;15.99;70.59;100356.31;4867027;29;45214;-74
2022/11/09 00:48:10;;;;;;;;;2.75;2.25;;;;;15.97;70.73;100366.31;4867955;29;45429;-74
2022/11/09 00:50:35;;;;;;;;;5.50;4.00;;;;;15.95;70.85;100368.25;4876372;29;45401;-74
2022/11/09 00:53:00;;;;;;;;;4.75;3.75;;;;;15.86;70.82;100350.84;4869291;29;45397;-75
2022/11/09 00:55:26;;;;;;;;;3.00;2.00;;;;;15.91;71.10;100357.66;4875427;29;45883;-74
2022/11/09 00:57:52;;;;;;;;;3.00;3.00;;;;;15.86;71.16;100346.31;4867755;29;45184;-74
2022/11/09 01:00:19;;;;;;;;;3.00;2.75;;;;;15.86;71.13;100357.06;4867487;29;45490;-75
2022/11/09 01:02:45;;;;;;;;;2.25;2.25;;;;;15.85;71.09;100359.84;4866866;29;45528;-74
2022/11/09 01:05:10;;;;;;;;;4.00;2.50;;;;;15.82;71.32;100358.22;4866049;29;45325;-74
2022/11/09 01:07:36;;;;;;;;;2.00;2.00;;;;;15.80;71.12;100367.34;4853049;29;45617;-74
2022/11/09 01:10:03;;;;;;;;;2.25;2.00;;;;;15.74;71.35;100376.63;4867658;29;45447;-74
2022/11/09 01:12:28;;;;;;;;;3.00;3.00;;;;;15.81;71.21;100378.00;4867212;29;45430;-75
2022/11/09 01:14:54;;;;;;;;;5.25;2.50;;;;;15.84;71.15;100382.38;4865745;29;45379;-74
2022/11/09 01:17:19;;;;;;;;;3.00;2.50;;;;;15.83;71.25;100392.25;4853881;29;45369;-75
2022/11/09 01:19:45;;;;;;;;;4.75;3.50;;;;;15.81;71.13;100382.53;4856833;29;45632;-74
2022/11/09 01:22:10;;;;;;;;;3.00;3.00;;;;;15.83;71.38;100399.47;4850300;29;60576;-74
2022/11/09 01:24:35;;;;;;;;;3.75;2.50;;;;;15.83;71.16;100391.38;4866096;29;45622;-74
2022/11/09 01:27:00;;;;;;;;;3.00;2.00;;;;;15.81;71.13;100391.47;4864814;29;45301;-74
2022/11/09 01:29:26;;;;;;;;;3.25;1.75;;;;;15.84;71.13;100399.38;4864837;29;45442;-74
2022/11/09 01:31:54;;;;;;;;;2.25;2.25;;;;;15.72;71.28;100386.63;4849230;29;48337;-74
2022/11/09 01:34:19;;;;;;;;;3.00;2.00;;;;;15.85;70.99;100409.16;4853185;29;45413;-74
2022/11/09 01:36:45;;;;;;;;;2.00;2.00;;;;;15.82;70.97;100414.75;4861241;29;45425;-75
2022/11/09 01:39:10;;;;;;;;;1.25;1.25;;;;;15.83;70.98;100423.69;4866045;29;45379;-74
2022/11/09 01:41:36;;;;;;;;;1.00;1.00;;;;;15.81;70.92;100422.91;4866918;29;46176;-75
2022/11/09 01:44:13;;;;;;;;;2.00;2.00;;;;;15.82;70.97;100430.00;4865628;29;45268;-74
2022/11/09 01:46:53;;;;;;;;;2.00;2.00;;;;;15.81;70.92;100428.28;4849415;29;45508;-75
2022/11/09 01:49:25;;;;;;;;;2.25;2.25;;;;;15.79;70.93;100438.28;4864499;29;45629;-76
2022/11/09 01:52:06;;;;;;;;;2.75;2.75;;;;;15.78;71.08;100432.03;4865534;29;46204;-76
2022/11/09 01:54:40;;;;;;;;;2.00;2.00;;;;;15.76;70.98;100444.72;4866894;29;45466;-76
2022/11/09 01:57:10;;;;;;;;;5.50;2.75;;;;;15.75;70.88;100440.22;4865934;29;45415;-77
2022/11/09 01:59:42;;;;;;;;;5.50;2.25;;;;;15.76;70.81;100438.47;4865681;29;45319;-76
2022/11/09 02:02:08;;;;;;;;;3.00;2.00;;;;;15.75;70.94;100453.69;4866247;29;45468;-76
2022/11/09 02:04:41;;;;;;;;;3.00;1.25;;;;;15.72;70.97;100451.22;4866994;29;45322;-77
2022/11/09 02:07:07;;;;;;;;;2.00;2.00;;;;;15.61;70.56;100422.22;4865593;29;45344;-77
2022/11/09 02:09:42;;;;;;;;;3.00;3.00;;;;;15.71;70.74;100446.78;4865721;29;45370;-76
2022/11/09 02:12:08;;;;;;;;;3.00;2.00;;;;;15.66;70.91;100446.19;4876003;29;46407;-76
2022/11/09 02:14:35;;;;;;;;;2.00;1.00;;;;;15.69;70.74;100452.25;4866548;29;45523;-77
2022/11/09 02:17:01;;;;;;;;;3.50;2.00;;;;;15.63;70.96;100447.19;4866610;29;45569;-76
2022/11/09 02:19:26;;;;;;;;;3.75;1.25;;;;;15.63;70.69;100446.34;4849249;29;45400;-76
2022/11/09 02:21:52;;;;;;;;;1.50;1.50;;;;;15.63;70.97;100451.72;4849505;29;46371;-76
2022/11/09 02:24:18;;;;;;;;;2.00;1.00;;;;;15.57;70.91;100440.38;4830839;29;45422;-76
2022/11/09 02:26:51;;;;;;;;;1.50;1.50;;;;;15.53;70.71;100433.41;4844971;29;45458;-76
2022/11/09 02:29:23;;;;;;;;;2.00;2.00;;;;;15.53;70.45;100433.41;4836899;29;45465;-77
2022/11/09 02:31:54;;;;;;;;;4.25;2.00;;;;;15.57;70.53;100444.91;4847286;29;45511;-76
2022/11/09 02:34:22;;;;;;;;;1.25;1.00;;;;;15.53;70.80;100436.09;4847934;29;45557;-77
2022/11/09 02:36:47;;;;;;;;;3.75;1.75;;;;;15.47;70.90;100430.22;4846783;29;45314;-77
2022/11/09 02:39:16;;;;;;;;;3.00;2.00;;;;;15.50;71.12;100447.06;4847634;29;45397;-77
2022/11/09 02:41:53;;;;;;;;;1.00;1.00;;;;;15.51;70.79;100448.78;4845954;29;45541;-77
2022/11/09 02:44:19;;;;;;;;;1.00;1.00;;;;;15.44;70.97;100442.03;4830303;29;45230;-76
2022/11/09 02:46:44;;;;;;;;;1.00;1.00;;;;;15.47;70.64;100451.72;4846520;29;46631;-76
2022/11/09 02:49:10;;;;;;;;;2.25;1.25;;;;;15.45;70.42;100454.53;4845165;29;45511;-77
2022/11/09 02:51:35;;;;;;;;;1.25;1.25;;;;;15.43;70.52;100451.03;4847149;29;46037;-77
2022/11/09 02:54:01;;;;;;;;;5.00;2.00;;;;;15.34;70.61;100439.00;4846787;29;45381;-77
2022/11/09 02:56:26;;;;;;;;;2.50;1.25;;;;;15.42;70.28;100457.41;4847529;29;45341;-76
2022/11/09 02:58:52;;;;;;;;;3.50;1.25;;;;;15.41;70.26;100458.34;4846884;29;45327;-77
2022/11/09 03:01:17;;;;;;;;;2.25;1.00;;;;;15.43;70.33;100467.19;4845214;29;50898;-76
2022/11/09 03:03:42;;;;;;;;;1.75;1.00;;;;;15.44;70.10;100465.38;4842364;29;45440;-76
2022/11/09 03:06:08;;;;;;;;;2.00;0.00;;;;;15.38;70.08;100464.78;4846652;29;45601;-76
2022/11/09 03:08:33;;;;;;;;;1.00;0.00;;;;;15.42;70.07;100467.28;4830985;29;45796;-76
2022/11/09 03:10:59;;;;;;;;;2.00;0.75;;;;;15.41;69.88;100476.31;4848867;29;45580;-76
2022/11/09 03:13:25;;;;;;;;;1.00;1.00;;;;;15.38;69.81;100475.53;4844311;29;45234;-77
2022/11/09 03:15:50;;;;;;;;;0.50;0.25;;;;;15.32;69.83;100466.94;4846831;29;45428;-76
2022/11/09 03:18:16;;;;;;;;;0.00;0.00;;;;;15.30;69.77;100468.84;4844041;29;45457;-76
2022/11/09 03:20:41;;;;;;;;;1.50;0.00;;;;;15.25;69.79;100465.53;4852285;29;46068;-77
2022/11/09 03:23:06;;;;;;;;;1.75;0.50;;;;;15.23;69.70;100457.56;4864297;29;45239;-77
2022/11/09 03:25:31;;;;;;;;;0.00;0.00;;;;;15.25;69.74;100473.59;4865705;29;45409;-77
2022/11/09 03:27:58;;;;;;;;;2.25;0.75;;;;;15.21;69.91;100466.69;4853315;29;45475;-77
2022/11/09 03:30:25;;;;;;;;;0.00;0.00;;;;;15.20;69.84;100468.47;4862931;29;47208;-76
2022/11/09 03:32:50;;;;;;;;;1.75;0.00;;;;;15.21;69.85;100472.91;4864779;29;45469;-76
2022/11/09 03:35:15;;;;;;;;;0.00;0.00;;;;;15.04;69.73;100449.66;4865222;29;45512;-77
2022/11/09 03:37:41;;;;;;;;;0.00;0.00;;;;;15.16;69.95;100475.84;4865510;29;45252;-76
2022/11/09 03:40:07;;;;;;;;;0.00;0.00;;;;;15.14;70.00;100485.84;4864381;29;50635;-76
2022/11/09 03:42:32;;;;;;;;;0.00;0.00;;;;;15.05;69.62;100475.59;4862462;29;45434;-76
2022/11/09 03:44:57;;;;;;;;;1.00;0.00;;;;;15.07;69.90;100479.06;4864958;29;45233;-76
2022/11/09 03:47:22;;;;;;;;;0.00;0.00;;;;;15.10;69.99;100481.59;4865110;29;45372;-76
2022/11/09 03:49:48;;;;;;;;;0.00;0.00;;;;;15.10;70.03;100480.69;4865244;29;45365;-76
2022/11/09 03:52:13;;;;;;;;;0.00;0.00;;;;;15.07;69.67;100486.25;4863525;29;47510;-76
2022/11/09 03:54:38;;;;;;;;;1.00;0.00;;;;;15.11;69.65;100483.31;4865584;29;45441;-76
2022/11/09 03:57:04;;;;;;;;;0.00;0.00;;;;;15.08;69.67;100483.47;4848855;29;45609;-77
2022/11/09 03:59:29;;;;;;;;;0.25;0.00;;;;;15.07;69.64;100483.56;4864648;29;46259;-77
2022/11/09 04:01:54;;;;;;;;;0.00;0.00;;;;;15.05;69.32;100486.34;4864063;29;45381;-76
2022/11/09 04:04:20;;;;;;;;;1.00;0.00;;;;;15.06;69.52;100495.28;4864570;29;45290;-76
2022/11/09 04:06:45;;;;;;;;;1.00;0.75;;;;;15.03;69.72;100488.25;4863531;29;45414;-77
2022/11/09 04:09:10;;;;;;;;;0.00;0.00;;;;;14.93;69.68;100474.44;4865217;29;46399;-76
2022/11/09 04:11:36;;;;;;;;;0.00;0.00;;;;;15.04;69.48;100498.06;4871390;29;45301;-77
2022/11/09 04:14:01;;;;;;;;;0.00;0.00;;;;;14.94;69.72;100491.44;4867978;29;45195;-76
2022/11/09 04:16:26;;;;;;;;;2.00;0.75;;;;;15.01;69.34;100498.22;4868224;29;45501;-76
2022/11/09 04:18:52;;;;;;;;;0.00;0.00;;;;;15.03;69.40;100503.50;4867562;29;45925;-76
2022/11/09 04:21:17;;;;;;;;;0.00;0.00;;;;;14.99;69.23;100516.25;4866638;29;47012;-76
2022/11/09 04:23:42;;;;;;;;;1.00;1.00;;;;;14.95;69.27;100504.81;4868251;29;45445;-76
2022/11/09 04:26:08;;;;;;;;;0.00;0.00;;;;;14.96;69.49;100513.72;4868213;29;46602;-76
2022/11/09 04:28:33;;;;;;;;;2.00;0.00;;;;;14.90;69.87;100506.88;4855583;29;45314;-76
2022/11/09 04:31:00;;;;;;;;;0.00;0.00;;;;;14.92;69.70;100520.22;4867357;29;45440;-76
2022/11/09 04:33:26;;;;;;;;;1.00;1.00;;;;;14.91;69.52;100515.81;4868342;29;45418;-76
2022/11/09 04:35:51;;;;;;;;;0.00;0.00;;;;;14.88;69.45;100518.66;4866285;29;45461;-76
2022/11/09 04:38:17;;;;;;;;;1.75;0.00;;;;;14.85;69.69;100521.50;4867874;29;45330;-76
2022/11/09 04:40:42;;;;;;;;;1.50;0.00;;;;;14.70;69.85;100507.94;4865209;29;45319;-77
2022/11/09 04:43:12;;;;;;;;;0.00;0.00;;;;;14.86;69.86;100536.69;4850935;29;45334;-76
2022/11/09 04:45:37;;;;;;;;;1.00;0.00;;;;;14.86;70.01;100542.06;4867700;29;45281;-76
2022/11/09 04:48:05;;;;;;;;;0.25;0.25;;;;;14.78;69.89;100524.53;4867822;29;45227;-76
2022/11/09 04:50:32;;;;;;;;;1.00;0.00;;;;;14.86;70.02;100536.69;4867889;29;45520;-77
2022/11/09 04:53:23;;;;;;;;;2.00;0.00;;;;;14.84;69.89;100538.59;4867325;29;45387;-76
2022/11/09 04:55:50;;;;;;;;;0.00;0.00;;;;;14.86;69.95;100539.38;4863923;29;45552;-76
2022/11/09 04:58:15;;;;;;;;;1.00;1.00;;;;;14.85;69.88;100540.31;4855610;29;46250;-76
2022/11/09 05:00:40;;;;;;;;;0.00;0.00;;;;;14.70;70.25;100529.44;4866669;29;45252;-76
2022/11/09 05:03:06;;;;;;;;;0.75;0.25;;;;;14.78;70.07;100543.34;4852344;29;45347;-77
2022/11/09 05:05:33;;;;;;;;;0.75;0.75;;;;;14.73;70.18;100531.94;4867514;29;45469;-77
2022/11/09 05:07:58;;;;;;;;;0.75;0.75;;;;;14.73;70.16;100542.69;4867664;29;46128;-76
2022/11/09 05:10:24;;;;;;;;;1.25;0.00;;;;;14.71;69.98;100552.66;4865962;29;45471;-76
2022/11/09 05:12:49;;;;;;;;;1.00;1.00;;;;;14.57;70.12;100520.25;4876633;29;45379;-76
2022/11/09 05:15:14;;;;;;;;;0.75;0.75;;;;;14.63;69.98;100536.97;4865621;29;45477;-76
2022/11/09 05:17:39;;;;;;;;;2.00;1.00;;;;;14.62;70.10;100537.03;4867478;29;45388;-76
2022/11/09 05:20:05;;;;;;;;;2.00;1.00;;;;;14.52;70.41;100523.19;4865179;29;45204;-77
2022/11/09 05:25:14;;;;;;;;;1.00;1.00;;;;;14.61;70.06;100556.78;4848832;29;45363;-76
2022/11/09 05:27:40;;;;;;;;;1.00;1.00;;;;;14.59;70.38;100546.09;4843999;29;46053;-77
2022/11/09 05:30:06;;;;;;;;;0.50;0.00;;;;;14.64;70.23;100552.09;4847724;29;45271;-76
2022/11/09 05:32:31;;;;;;;;;0.25;0.25;;;;;14.64;70.56;100543.19;4848735;29;45441;-75
2022/11/09 05:34:56;;;;;;;;;1.75;0.00;;;;;14.63;70.12;100536.06;4831431;29;46160;-74
2022/11/09 05:37:22;;;;;;;;;1.50;1.50;;;;;14.59;70.46;100547.94;4848592;29;45253;-74
2022/11/09 05:39:47;;;;;;;;;1.00;1.00;;;;;14.60;70.46;100549.66;4846337;29;45353;-75
2022/11/09 05:42:13;;;;;;;;;0.25;0.00;;;;;14.60;70.32;100546.97;4849096;29;45285;-75
2022/11/09 05:44:38;;;;;;;;;4.00;1.00;;;;;14.59;70.40;100547.94;4848664;29;45206;-75
2022/11/09 05:47:04;;;;;;;;;1.00;1.00;;;;;14.60;70.72;100547.84;4848376;29;45946;-75
2022/11/09 05:49:29;;;;;;;;;1.00;1.00;;;;;14.59;70.42;100561.38;4847330;29;45267;-75
2022/11/09 05:51:54;;;;;;;;;1.00;1.00;;;;;14.58;70.50;100554.22;4831203;29;45280;-75
2022/11/09 05:54:19;;;;;;;;;2.00;1.50;;;;;14.55;70.71;100552.56;4848598;29;45285;-75
2022/11/09 05:56:45;;;;;;;;;1.50;1.00;;;;;14.59;70.38;100562.22;4848250;29;45985;-75
2022/11/09 05:59:10;;;;;;;;;2.25;1.75;;;;;14.59;70.81;100562.22;4831120;29;45419;-75
2022/11/09 06:01:35;;;;;;;;;1.50;1.50;;;;;14.56;71.00;100565.03;4846758;29;45351;-75
2022/11/09 06:04:01;;;;;;;;;1.25;1.25;;;;;14.59;70.84;100570.28;4848208;29;45346;-75
2022/11/09 06:06:26;;;;;;;;;3.25;1.50;;;;;14.58;70.69;100571.22;4830908;29;47619;-75
2022/11/09 06:08:51;;;;;;;;;2.50;2.50;;;;;14.56;71.10;100567.72;4847636;29;46567;-74
2022/11/09 06:11:17;;;;;;;;;2.00;2.00;;;;;14.50;70.93;100560.00;4849955;29;45338;-74
2022/11/09 06:13:42;;;;;;;;;4.00;2.00;;;;;14.49;70.98;100554.69;4846769;29;45348;-75
2022/11/09 06:16:09;;;;;;;;;7.50;4.25;;;;;14.56;71.04;100567.72;4847582;29;47321;-75
2022/11/09 06:18:35;;;;;;;;;3.75;2.75;;;;;14.58;71.38;100564.94;4847831;29;45540;-77
2022/11/09 06:21:03;;;;;;;;;2.50;1.25;;;;;14.57;71.22;100565.91;4844826;29;45367;-77
2022/11/09 06:23:29;;;;;;;;;2.00;2.00;;;;;14.51;71.45;100563.53;4866065;29;45515;-77
2022/11/09 06:26:06;;;;;;;;;5.75;3.50;;;;;14.58;71.08;100579.28;4866114;29;45587;-77
2022/11/09 06:28:32;;;;;;;;;2.00;2.00;;;;;14.53;71.47;100575.06;4865700;29;45840;-77
2022/11/09 06:30:58;;;;;;;;;2.00;2.00;;;;;14.52;71.44;100578.72;4847899;29;45380;-77
2022/11/09 06:33:24;;;;;;;;;2.00;2.00;;;;;14.54;71.25;100588.41;4866078;29;45384;-77
2022/11/09 06:35:50;;;;;;;;;4.75;3.00;;;;;14.53;71.70;100592.03;4866376;29;45580;-77
2022/11/09 06:38:15;;;;;;;;;5.00;3.00;;;;;14.52;71.68;100586.78;4866184;29;45294;-76
2022/11/09 06:40:40;;;;;;;;;5.00;3.00;;;;;14.51;71.48;100593.09;4865577;29;45666;-80
2022/11/09 06:43:06;;;;;;;;;7.25;3.00;;;;;14.54;71.64;100596.47;4864138;29;45452;-80
2022/11/09 06:45:32;;;;;;;;;5.75;3.25;;;;;14.57;71.59;100603.53;4865419;29;46154;-80
2022/11/09 06:48:00;;;;;;;;;5.50;4.00;;;;;14.48;71.57;100593.25;4866385;29;45425;-80
2022/11/09 06:50:27;;;;;;;;;4.00;3.00;;;;;14.56;71.54;100609.84;4865232;29;45519;-80
2022/11/09 06:53:02;;;;;;;;;6.75;3.75;;;;;14.57;71.55;100612.44;4865293;29;45344;-80
2022/11/09 06:55:29;;;;;;;;;2.50;2.50;;;;;14.56;71.76;100608.00;4866134;29;46790;-79
2022/11/09 06:57:54;;;;;;;;;2.25;2.00;;;;;14.58;71.87;100619.56;4849140;29;45672;-76
2022/11/09 07:00:20;;;;;;;;;4.50;3.00;;;;;14.58;71.94;100621.34;4865732;29;45266;-77
2022/11/09 07:02:45;;;;;;;;;5.00;3.25;;;;;14.55;71.76;100616.13;4864769;29;45527;-77
2022/11/09 07:05:11;;;;;;;;;3.00;3.00;;;;;14.53;72.05;100615.34;4865914;29;45361;-77
2022/11/09 07:07:36;;;;;;;;;2.00;2.00;;;;;14.52;72.19;100617.19;4863483;29;45281;-77
2022/11/09 07:10:02;;;;;;;;;4.00;3.75;;;;;14.54;72.11;100619.78;4862978;29;45352;-77
2022/11/09 07:12:27;;;;;;;;;6.75;3.00;;;;;14.57;72.16;100633.06;4864826;29;45571;-77
2022/11/09 07:14:53;;;;;;;;;4.00;3.00;;;;;14.57;72.24;100639.31;4864857;29;46276;-76
2022/11/09 07:17:18;;;;;;;;;3.75;3.00;;;;;14.57;72.01;100652.75;4864884;29;45260;-80
2022/11/09 07:19:44;;;;;;;;;3.00;2.00;;;;;14.56;72.11;100650.97;4866272;29;45525;-80
2022/11/09 07:22:09;;;;;;;;;4.00;4.00;;;;;14.55;72.40;100657.31;4849446;29;45418;-80
2022/11/09 07:24:34;;;;;;;;;4.00;3.50;;;;;14.55;72.53;100662.69;4846199;29;45702;-77
2022/11/09 07:27:00;;;;;;;;;8.00;4.50;;;;;14.44;72.37;100644.41;4834702;29;45525;-77
2022/11/09 07:29:25;;;;;;;;;4.25;3.25;;;;;14.53;72.73;100667.25;4848525;29;45440;-76
2022/11/09 07:31:50;;;;;;;;;3.00;3.00;;;;;14.54;72.39;100676.19;4847378;29;45613;-76
2022/11/09 07:34:16;;;;;;;;;3.25;3.00;;;;;14.49;72.91;100671.06;4847327;29;45365;-77
2022/11/09 07:36:41;;;;;;;;;2.25;2.00;;;;;14.49;72.63;100668.38;4845416;29;45267;-77
2022/11/09 07:39:06;;;;;;;;;2.75;2.50;;;;;14.42;72.71;100659.75;4846541;29;45284;-77
2022/11/09 07:41:32;;;;;;;;;4.50;3.50;;;;;14.53;72.92;100678.00;4842803;29;45565;-76
2022/11/09 07:43:57;;;;;;;;;4.00;4.00;;;;;14.50;72.86;100663.84;4841696;29;46608;-76
2022/11/09 07:46:23;;;;;;;;;3.00;3.00;;;;;14.45;72.67;100658.75;4841512;29;45407;-77
2022/11/09 07:48:48;;;;;;;;;3.75;3.75;;;;;14.52;72.92;100668.22;4843250;29;45437;-77
2022/11/09 07:51:13;;;;;;;;;6.50;5.00;;;;;14.59;72.81;100674.19;4855225;29;45388;-76
2022/11/09 07:53:39;;;;;;;;;3.75;3.75;;;;;14.56;73.05;100668.94;4849742;29;45443;-76
2022/11/09 07:56:05;;;;;;;;;7.00;5.75;;;;;14.52;73.04;100668.22;4858196;29;45360;-77
2022/11/09 07:58:31;;;;;;;;;5.00;5.00;;;;;14.58;73.00;100678.66;4834459;29;45767;-77
2022/11/09 08:00:56;;;;;;;;;4.50;4.00;;;;;14.53;72.97;100675.31;4851271;29;45640;-77
2022/11/09 08:03:23;;;;;;;;;6.75;4.50;;;;;14.57;73.04;100684.13;4852272;29;46028;-77
2022/11/09 08:05:50;;;;;;;;;5.00;5.00;;;;;14.57;73.31;100687.66;4834629;29;45676;-77
2022/11/09 08:08:16;;;;;;;;;5.50;3.50;;;;;14.57;73.44;100698.41;4846412;29;46021;-77
2022/11/09 08:10:43;;;;;;;;;4.50;3.50;;;;;14.50;73.18;100688.91;4848596;29;45439;-77
2022/11/09 08:13:13;;;;;;;;;3.75;3.50;;;;;14.58;73.60;100694.78;4847558;29;46112;-77
2022/11/09 08:15:40;;;;;;;;;3.75;3.75;;;;;14.60;73.39;100708.13;4848041;29;46205;-77
2022/11/09 08:18:10;;;;;;;;;4.50;3.50;;;;;14.61;73.52;100701.84;4842318;29;45475;-77
2022/11/09 08:20:36;;;;;;;;;5.00;4.00;;;;;14.60;73.53;100708.13;4847298;29;45471;-77
2022/11/09 08:23:02;;;;;;;;;4.00;4.00;;;;;14.61;73.89;100707.19;4868818;29;45623;-77
2022/11/09 08:25:27;;;;;;;;;4.25;4.00;;;;;14.59;73.48;100695.69;4865484;29;45268;-77
2022/11/09 08:27:55;;;;;;;;;6.75;3.75;;;;;14.61;73.75;100697.31;4864061;29;45688;-77
2022/11/09 08:30:20;;;;;;;;;4.00;4.00;;;;;14.65;73.45;100698.06;4857522;29;45530;-77
2022/11/09 08:32:47;;;;;;;;;6.00;4.25;;;;;14.69;73.17;100706.84;4871905;29;46221;-77
2022/11/09 08:35:16;;;;;;;;;7.50;4.00;;;;;14.72;73.53;100712.91;4868986;29;45339;-77
2022/11/09 08:37:45;;;;;;;;;5.75;4.00;;;;;14.72;73.70;100710.22;4864277;29;45602;-77
2022/11/09 08:40:12;;;;;;;;;3.50;3.00;;;;;14.68;74.01;100711.31;4872843;29;45394;-77
2022/11/09 08:42:37;;;;;;;;;3.00;3.00;;;;;14.71;73.69;100713.00;4855940;29;46190;-77
2022/11/09 08:45:03;;;;;;;;;5.25;3.50;;;;;14.74;73.64;100716.38;4866783;29;45393;-77
2022/11/09 08:47:28;;;;;;;;;4.25;4.25;;;;;14.75;73.82;100726.22;4852628;29;45499;-78
2022/11/09 08:49:54;;;;;;;;;5.75;3.75;;;;;14.75;73.83;100720.84;4868236;29;45436;-77
2022/11/09 08:52:19;;;;;;;;;3.75;3.00;;;;;14.68;74.08;100715.81;4866805;29;45395;-77
2022/11/09 08:54:45;;;;;;;;;2.75;2.25;;;;;14.72;73.84;100723.66;4867235;29;45310;-77
2022/11/09 08:57:10;;;;;;;;;5.50;2.75;;;;;14.77;73.87;100743.13;4852087;29;45336;-77
2022/11/09 08:59:36;;;;;;;;;4.00;3.00;;;;;14.68;73.97;100726.56;4868498;29;45562;-77
2022/11/09 09:02:01;;;;;;;;;3.50;3.50;;;;;14.72;74.02;100731.72;4867568;29;45523;-77
2022/11/09 09:04:26;;;;;;;;;3.25;3.00;;;;;14.77;73.96;100739.56;4865365;29;47141;-80
2022/11/09 09:06:52;;;;;;;;;9.00;4.00;;;;;14.82;73.74;100748.25;4872426;29;45622;-80
2022/11/09 09:09:18;;;;;;;;;3.25;2.00;;;;;14.85;74.21;100747.22;4851456;29;45517;-81
2022/11/09 09:11:44;;;;;;;;;4.00;3.00;;;;;14.87;73.72;100753.38;4873625;29;45383;-80
2022/11/09 09:14:09;;;;;;;;;3.00;3.00;;;;;14.87;73.86;100756.97;4870697;29;45324;-81
2022/11/09 09:16:34;;;;;;;;;4.75;3.50;;;;;14.87;73.73;100759.66;4859475;29;45648;-81
2022/11/09 09:19:00;;;;;;;;;3.00;2.00;;;;;14.91;73.78;100760.38;4868210;29;45550;-80
2022/11/09 09:21:25;;;;;;;;;2.75;2.75;;;;;14.91;73.96;100761.22;4866960;29;46731;-80
2022/11/09 09:23:51;;;;;;;;;3.50;2.00;;;;;14.89;73.75;100754.19;4866366;29;45609;-80
2022/11/09 09:26:16;;;;;;;;;4.25;2.75;;;;;14.96;73.75;100769.06;4851483;29;46492;-80
2022/11/09 09:28:42;;;;;;;;;5.00;3.00;;;;;15.00;73.78;100765.25;4862136;29;45523;-80
2022/11/09 09:31:07;;;;;;;;;1.25;1.25;;;;;14.99;73.70;100767.09;4865983;29;45982;-79
2022/11/09 09:33:33;;;;;;;;;4.00;2.00;;;;;15.03;73.75;100781.25;4865074;29;45241;-79
2022/11/09 09:35:59;;;;;;;;;3.00;3.00;;;;;15.05;73.38;100774.00;4864008;29;45336;-80
2022/11/09 09:38:25;;;;;;;;;6.75;3.00;;;;;15.07;73.54;100782.84;4847685;29;45687;-77
2022/11/09 09:41:00;;;;;;;;;2.25;2.00;;;;;15.12;73.55;100778.09;4867620;29;45297;-79
2022/11/09 09:43:39;;;;;;;;;1.50;1.50;;;;;15.15;73.59;100787.81;4863230;29;45857;-79
2022/11/09 09:46:13;;;;;;;;;5.50;2.00;;;;;15.14;73.46;100784.25;4844721;29;45410;-79
2022/11/09 09:48:46;;;;;;;;;3.50;2.75;;;;;15.20;73.27;100788.44;4865008;29;45412;-79
2022/11/09 09:51:31;;;;;;;;;3.75;2.00;;;;;15.19;73.46;100790.28;4872745;29;46177;-79
2022/11/09 09:54:06;;;;;;;;;3.75;3.00;;;;;15.25;73.17;100801.66;4858875;29;45635;-79
2022/11/09 09:56:39;;;;;;;;;4.00;1.00;;;;;15.23;73.14;100798.19;4847927;29;45341;-79
2022/11/09 09:59:13;;;;;;;;;2.50;2.00;;;;;15.17;73.27;100791.31;4870335;29;45531;-78
2022/11/09 10:01:43;;;;;;;;;1.50;1.50;;;;;15.23;73.05;100790.97;4858326;29;48427;-78
2022/11/09 10:04:21;;;;;;;;;8.00;6.50;;;;;15.25;73.26;100793.59;4846165;29;45980;-79
2022/11/09 10:07:22;;;;;;;;;5.50;3.00;;;;;15.34;72.93;100810.13;4876075;29;45904;-79
2022/11/09 10:10:02;;;;;;;;;3.00;3.00;;;;;15.31;73.40;100799.53;4851177;29;45539;-79
2022/11/09 10:12:28;;;;;;;;;2.75;1.50;;;;;15.39;72.93;100815.28;4868079;29;45498;-76
2022/11/09 10:15:05;;;;;;;;;2.00;1.00;;;;;15.37;72.71;100811.81;4858313;29;45487;-76
2022/11/09 10:17:30;;;;;;;;;2.25;2.25;;;;;15.41;72.74;100829.53;4866097;29;45526;-75
2022/11/09 10:20:12;;;;;;;;;3.25;2.00;;;;;15.43;72.71;100824.94;4865604;29;45383;-78
2022/11/09 10:22:52;;;;;;;;;1.00;1.00;;;;;15.46;72.54;100830.16;4863432;29;45563;-79
2022/11/09 10:25:22;;;;;;;;;1.00;1.00;;;;;15.49;72.36;100831.84;4859737;29;45465;-78
2022/11/09 10:27:54;;;;;;;;;3.00;1.00;;;;;15.51;72.47;100838.00;4851642;29;45281;-78
2022/11/09 10:30:22;;;;;;;;;1.50;1.50;;;;;15.54;72.64;100843.22;4866860;29;45201;-78
2022/11/09 10:32:50;;;;;;;;;3.00;1.25;;;;;15.55;72.30;100835.06;4850821;29;47212;-78
2022/11/09 10:35:27;;;;;;;;;1.75;1.75;;;;;15.63;72.32;100844.56;4867567;29;45470;-78
2022/11/09 10:37:53;;;;;;;;;3.00;2.00;;;;;15.59;72.17;100837.59;4859838;29;45306;-79
2022/11/09 10:40:22;;;;;;;;;1.50;1.25;;;;;15.71;71.48;100850.41;4863006;29;45528;-76
2022/11/09 10:43:00;;;;;;;;;2.25;2.25;;;;;15.70;71.50;100849.56;4844796;29;47581;-75
2022/11/09 10:45:37;;;;;;;;;4.00;2.00;;;;;15.74;71.18;100842.19;4865727;29;46782;-76
2022/11/09 10:48:04;;;;;;;;;3.75;2.00;;;;;15.72;71.04;100831.50;4850882;29;45842;-75
2022/11/09 10:50:45;;;;;;;;;4.00;1.00;;;;;15.76;71.22;100840.31;4850907;29;45494;-76
2022/11/09 10:53:20;;;;;;;;;1.25;1.25;;;;;15.78;70.91;100846.47;4850377;29;45397;-78
2022/11/09 10:56:04;;;;;;;;;1.00;1.00;;;;;15.82;70.56;100842.69;4851334;29;45353;-78
2022/11/09 10:58:38;;;;;;;;;1.75;1.00;;;;;15.78;70.71;100838.41;4859349;29;45396;-78
2022/11/09 11:01:25;;;;;;;;;1.00;1.00;;;;;15.78;70.27;100833.00;4847675;29;45590;-79
2022/11/09 11:03:53;;;;;;;;;2.25;1.00;;;;;15.89;70.36;100854.00;4862186;29;48341;-78
2022/11/09 11:06:20;;;;;;;;;2.00;0.25;;;;;15.84;69.88;100838.09;4862269;29;45349;-78
2022/11/09 11:09:09;;;;;;;;;1.75;1.75;;;;;15.95;69.89;100860.88;4865303;29;45417;-78
2022/11/09 11:11:36;;;;;;;;;2.00;2.00;;;;;15.82;70.14;100845.38;4865851;29;45350;-78
2022/11/09 11:14:26;;;;;;;;;2.00;2.00;;;;;15.92;69.80;100845.72;4866895;29;45460;-78
2022/11/09 11:16:52;;;;;;;;;1.00;1.00;;;;;16.01;69.73;100869.50;4864626;29;46308;-78
2022/11/09 11:19:47;;;;;;;;;2.25;1.00;;;;;16.04;69.18;100866.66;4867800;29;45606;-78
2022/11/09 11:22:18;;;;;;;;;4.25;2.00;;;;;16.10;69.31;100868.13;4834102;29;45517;-78
2022/11/09 11:25:04;;;;;;;;;3.50;2.00;;;;;16.05;69.00;100848.66;4866192;29;46450;-77
2022/11/09 11:27:50;;;;;;;;;0.75;0.75;;;;;16.16;69.09;100862.41;4869547;29;45513;-78
2022/11/09 11:30:27;;;;;;;;;4.25;3.00;;;;;16.22;68.92;100870.19;4851350;29;45448;-78